createdAt,value
2023-01-26T00:02:24.898Z,-0.10
2023-01-26T00:04:52.800Z,-0.10
2023-01-26T00:07:20.639Z,-0.10
2023-01-26T00:09:48.559Z,-0.10
2023-01-26T00:12:16.509Z,-0.10
2023-01-26T00:14:51.582Z,-0.10
2023-01-26T00:17:28.151Z,-0.10
2023-01-26T00:19:59.041Z,-0.10
2023-01-26T00:22:28.694Z,-0.10
2023-01-26T00:24:56.879Z,-0.10
2023-01-26T00:27:24.895Z,-0.10
2023-01-26T00:29:54.482Z,-0.10
2023-01-26T00:32:22.718Z,-0.10
2023-01-26T00:35:38.469Z,-0.10
2023-01-26T00:38:06.574Z,-0.10
2023-01-26T00:40:35.259Z,0.00
2023-01-26T00:43:03.167Z,0.10
2023-01-26T00:45:32.562Z,0.10
2023-01-26T00:48:01.272Z,0.10
2023-01-26T00:50:31.301Z,0.10
2023-01-26T00:52:59.253Z,0.10
2023-01-26T00:55:32.147Z,0.20
2023-01-26T00:58:01.804Z,0.20
2023-01-26T01:00:33.857Z,0.20
2023-01-26T01:03:02.194Z,0.20
2023-01-26T01:05:32.351Z,0.20
2023-01-26T01:08:00.281Z,0.10
2023-01-26T01:10:28.360Z,0.10
2023-01-26T01:12:56.952Z,0.10
2023-01-26T01:15:25.383Z,0.10
2023-01-26T01:17:54.813Z,0.10
2023-01-26T01:20:23.502Z,0.20
2023-01-26T01:22:53.038Z,0.20
2023-01-26T01:25:20.928Z,0.20
2023-01-26T01:27:48.839Z,0.10
2023-01-26T01:30:16.883Z,0.10
2023-01-26T01:32:44.879Z,0.10
2023-01-26T01:35:14.227Z,0.20
2023-01-26T01:37:42.109Z,0.20
2023-01-26T01:40:14.219Z,0.20
2023-01-26T01:42:48.567Z,0.20
2023-01-26T01:45:45.474Z,0.20
2023-01-26T01:48:21.924Z,0.20
2023-01-26T01:50:54.825Z,0.10
2023-01-26T01:53:33.660Z,0.10
2023-01-26T01:56:07.598Z,0.20
2023-01-26T01:58:41.389Z,0.10
2023-01-26T02:01:10.331Z,0.20
2023-01-26T02:03:39.795Z,0.20
2023-01-26T02:06:16.611Z,0.20
2023-01-26T02:08:48.903Z,0.30
2023-01-26T02:11:24.217Z,0.30
2023-01-26T02:13:53.588Z,0.30
2023-01-26T02:16:22.146Z,0.30
2023-01-26T02:18:50.392Z,0.30
2023-01-26T02:21:22.736Z,0.30
2023-01-26T02:24:21.343Z,0.20
2023-01-26T02:26:54.613Z,0.30
2023-01-26T02:29:23.557Z,0.30
2023-01-26T02:31:53.494Z,0.30
2023-01-26T02:34:25.128Z,0.20
2023-01-26T02:37:01.193Z,0.20
2023-01-26T02:39:45.415Z,0.10
2023-01-26T02:42:33.064Z,0.20
2023-01-26T02:45:01.319Z,0.20
2023-01-26T02:47:30.753Z,0.20
2023-01-26T02:49:58.728Z,0.20
2023-01-26T02:52:31.852Z,0.30
2023-01-26T02:55:25.395Z,0.30
2023-01-26T02:57:58.046Z,0.30
2023-01-26T03:00:29.789Z,0.30
2023-01-26T03:03:01.803Z,0.40
2023-01-26T03:05:31.571Z,0.30
2023-01-26T03:08:01.113Z,0.40
2023-01-26T03:10:35.557Z,0.40
2023-01-26T03:13:05.516Z,0.40
2023-01-26T03:15:43.746Z,0.30
2023-01-26T03:18:30.544Z,0.30
2023-01-26T03:21:17.879Z,0.30
2023-01-26T03:24:05.179Z,0.20
2023-01-26T03:26:52.228Z,0.30
2023-01-26T03:29:22.178Z,0.30
2023-01-26T03:31:50.667Z,0.40
2023-01-26T03:34:20.448Z,0.30
2023-01-26T03:36:49.517Z,0.30
2023-01-26T03:39:36.924Z,0.30
2023-01-26T03:42:24.046Z,0.30
2023-01-26T03:45:10.851Z,0.30
2023-01-26T03:48:00.033Z,0.20
2023-01-26T03:50:46.383Z,0.20
2023-01-26T03:53:36.159Z,0.10
2023-01-26T03:56:20.790Z,0.10
2023-01-26T03:58:52.842Z,0.20
2023-01-26T04:01:28.104Z,0.20
2023-01-26T04:04:16.883Z,0.20
2023-01-26T04:07:07.037Z,0.10
2023-01-26T04:09:37.685Z,0.10
2023-01-26T04:12:06.802Z,0.10
2023-01-26T04:14:57.043Z,0.10
2023-01-26T04:17:46.427Z,0.10
2023-01-26T04:20:33.316Z,0.10
2023-01-26T04:23:02.012Z,0.00
2023-01-26T04:25:30.133Z,0.00
2023-01-26T04:27:59.109Z,0.10
2023-01-26T04:30:27.190Z,0.10
2023-01-26T04:32:56.770Z,0.10
2023-01-26T04:35:25.090Z,0.10
2023-01-26T04:37:53.640Z,0.10
2023-01-26T04:40:21.713Z,0.00
2023-01-26T04:42:50.915Z,0.00
2023-01-26T04:45:18.929Z,0.00
2023-01-26T04:47:47.695Z,0.00
2023-01-26T04:50:19.226Z,0.10
2023-01-26T04:52:48.180Z,0.10
2023-01-26T04:55:17.090Z,0.10
2023-01-26T04:57:45.462Z,0.20
2023-01-26T05:00:14.724Z,0.20
2023-01-26T05:02:43.400Z,0.20
2023-01-26T05:05:11.935Z,0.20
2023-01-26T05:07:42.285Z,0.20
2023-01-26T05:10:15.461Z,0.30
2023-01-26T05:13:04.025Z,0.30
2023-01-26T05:15:49.369Z,0.30
2023-01-26T05:18:39.913Z,0.20
2023-01-26T05:21:27.526Z,0.20
2023-01-26T05:23:57.092Z,0.10
2023-01-26T05:27:12.410Z,0.10
2023-01-26T05:29:44.694Z,0.20
2023-01-26T05:32:12.915Z,0.10
2023-01-26T05:34:41.572Z,0.20
2023-01-26T05:37:10.909Z,0.20
2023-01-26T05:39:45.237Z,0.20
2023-01-26T05:42:14.619Z,0.30
2023-01-26T05:45:12.226Z,0.30
2023-01-26T05:47:42.971Z,0.30
2023-01-26T05:50:13.293Z,0.30
2023-01-26T05:52:46.417Z,0.30
2023-01-26T05:55:16.336Z,0.30
2023-01-26T05:57:44.724Z,0.30
2023-01-26T06:00:15.383Z,0.30
2023-01-26T06:02:49.748Z,0.30
2023-01-26T06:05:18.757Z,0.30
2023-01-26T06:07:48.856Z,0.30
2023-01-26T06:10:22.422Z,0.20
2023-01-26T06:13:02.453Z,0.20
2023-01-26T06:15:51.512Z,0.30
2023-01-26T06:18:22.878Z,0.30
2023-01-26T06:20:54.834Z,0.40
2023-01-26T06:23:22.844Z,0.40
2023-01-26T06:25:52.707Z,0.40
2023-01-26T06:28:21.071Z,0.30
2023-01-26T06:30:49.233Z,0.30
2023-01-26T06:33:17.579Z,0.30
2023-01-26T06:35:46.557Z,0.30
2023-01-26T06:38:15.965Z,0.30
2023-01-26T06:40:45.250Z,0.30
2023-01-26T06:43:14.623Z,0.40
2023-01-26T06:45:43.828Z,0.30
2023-01-26T06:48:12.056Z,0.30
2023-01-26T06:50:41.435Z,0.30
2023-01-26T06:53:31.141Z,0.30
2023-01-26T06:56:17.547Z,0.40
2023-01-26T06:58:59.308Z,0.40
2023-01-26T07:01:49.892Z,0.40
2023-01-26T07:04:18.487Z,0.30
2023-01-26T07:06:46.456Z,0.30
2023-01-26T07:09:14.415Z,0.30
2023-01-26T07:11:42.376Z,0.40
2023-01-26T07:14:11.590Z,0.40
2023-01-26T07:16:39.853Z,0.40
2023-01-26T07:19:07.940Z,0.40
2023-01-26T07:21:39.052Z,0.40
2023-01-26T07:24:08.178Z,0.40
2023-01-26T07:26:36.136Z,0.40
2023-01-26T07:29:04.140Z,0.40
2023-01-26T07:31:33.426Z,0.40
2023-01-26T07:34:01.423Z,0.40
2023-01-26T07:36:29.704Z,0.40
2023-01-26T07:38:57.834Z,0.40
2023-01-26T07:41:25.744Z,0.40
2023-01-26T07:43:53.735Z,0.40
2023-01-26T07:46:21.693Z,0.40
2023-01-26T07:48:51.181Z,0.40
2023-01-26T07:51:19.085Z,0.40
2023-01-26T07:53:49.859Z,0.50
2023-01-26T07:56:20.543Z,0.40
2023-01-26T07:58:51.861Z,0.30
2023-01-26T08:01:20.235Z,0.30
2023-01-26T08:03:53.591Z,0.30
2023-01-26T08:06:22.473Z,0.30
2023-01-26T08:08:53.505Z,0.30
2023-01-26T08:11:24.289Z,0.30
2023-01-26T08:13:52.326Z,0.30
2023-01-26T08:16:20.449Z,0.30
2023-01-26T08:18:49.392Z,0.30
2023-01-26T08:21:20.901Z,0.40
2023-01-26T08:23:50.341Z,0.40
2023-01-26T08:26:19.758Z,0.40
2023-01-26T08:28:48.847Z,0.30
2023-01-26T08:31:20.552Z,0.40
2023-01-26T08:33:51.150Z,0.40
2023-01-26T08:36:22.699Z,0.50
2023-01-26T08:38:51.606Z,0.50
2023-01-26T08:41:19.903Z,0.50
2023-01-26T08:43:47.881Z,0.40
2023-01-26T08:46:16.344Z,0.30
2023-01-26T08:48:44.353Z,0.30
2023-01-26T08:51:12.500Z,0.20
2023-01-26T08:53:41.771Z,0.20
2023-01-26T08:56:13.204Z,0.20
2023-01-26T08:58:41.492Z,0.30
2023-01-26T09:01:13.475Z,0.30
2023-01-26T09:03:42.073Z,0.30
2023-01-26T09:06:13.505Z,0.40
2023-01-26T09:08:43.195Z,0.40
2023-01-26T09:11:12.128Z,0.40
2023-01-26T09:13:40.825Z,0.40
2023-01-26T09:16:16.092Z,0.40
2023-01-26T09:18:44.119Z,0.40
2023-01-26T09:21:12.497Z,0.40
2023-01-26T09:23:41.776Z,0.50
2023-01-26T09:26:10.000Z,0.50
2023-01-26T09:28:38.072Z,0.50
2023-01-26T09:31:08.732Z,0.50
2023-01-26T09:33:37.202Z,0.50
2023-01-26T09:36:08.249Z,0.50
2023-01-26T09:38:36.489Z,0.50
2023-01-26T09:41:17.134Z,0.60
2023-01-26T09:43:51.203Z,0.60
2023-01-26T09:46:25.158Z,0.60
2023-01-26T09:49:06.369Z,0.60
2023-01-26T09:51:39.039Z,0.70
2023-01-26T09:54:24.319Z,0.60
2023-01-26T09:56:55.236Z,0.60
2023-01-26T09:59:32.001Z,0.60
2023-01-26T10:02:17.337Z,0.50
2023-01-26T10:04:52.666Z,0.40
2023-01-26T10:07:21.440Z,0.50
2023-01-26T10:09:54.452Z,0.70
2023-01-26T10:12:28.917Z,0.80
2023-01-26T10:15:05.846Z,0.80
2023-01-26T10:17:39.756Z,0.80
2023-01-26T10:20:23.248Z,0.80
2023-01-26T10:22:55.699Z,0.80
2023-01-26T10:25:34.453Z,1.00
2023-01-26T10:28:13.390Z,1.00
2023-01-26T10:30:43.741Z,1.10
2023-01-26T10:33:19.026Z,1.10
2023-01-26T10:35:47.674Z,1.20
2023-01-26T10:38:44.659Z,1.20
2023-01-26T10:41:27.097Z,1.30
2023-01-26T10:43:59.329Z,1.30
2023-01-26T10:46:34.283Z,1.30
2023-01-26T10:49:14.811Z,1.30
2023-01-26T10:51:46.260Z,1.40
2023-01-26T10:54:23.945Z,1.40
2023-01-26T10:56:56.586Z,1.40
2023-01-26T10:59:33.305Z,1.40
2023-01-26T11:02:18.520Z,1.30
2023-01-26T11:05:05.675Z,1.30
2023-01-26T11:07:37.951Z,1.30
2023-01-26T11:10:29.160Z,1.40
2023-01-26T11:13:17.543Z,1.40
2023-01-26T11:15:49.489Z,1.40
2023-01-26T11:18:35.824Z,1.40
2023-01-26T11:21:16.909Z,1.40
2023-01-26T11:23:58.077Z,1.40
2023-01-26T11:27:07.597Z,1.30
2023-01-26T11:29:54.095Z,1.40
2023-01-26T11:32:36.465Z,1.40
2023-01-26T11:35:30.320Z,1.40
2023-01-26T11:38:15.893Z,1.30
2023-01-26T11:40:55.644Z,1.30
2023-01-26T11:44:03.319Z,1.20
2023-01-26T11:46:53.350Z,1.20
2023-01-26T11:49:48.278Z,1.20
2023-01-26T11:52:29.425Z,1.20
2023-01-26T11:55:17.435Z,1.20
2023-01-26T11:58:06.081Z,1.20
2023-01-26T12:00:42.064Z,1.30
2023-01-26T12:03:22.362Z,1.20
2023-01-26T12:05:56.299Z,1.20
2023-01-26T12:08:38.265Z,1.10
2023-01-26T12:11:25.071Z,1.10
2023-01-26T12:14:08.243Z,1.10
2023-01-26T12:16:56.451Z,1.10
2023-01-26T12:19:42.972Z,1.10
2023-01-26T12:22:22.064Z,1.00
2023-01-26T12:25:17.927Z,1.10
2023-01-26T12:27:56.027Z,1.00
2023-01-26T12:30:35.482Z,1.00
2023-01-26T12:33:03.766Z,1.00
2023-01-26T12:35:59.102Z,1.00
2023-01-26T12:38:47.505Z,1.00
2023-01-26T12:41:26.713Z,1.10
2023-01-26T12:44:18.488Z,1.10
2023-01-26T12:46:56.001Z,1.10
2023-01-26T12:49:31.069Z,1.00
2023-01-26T12:52:07.532Z,1.00
2023-01-26T12:54:46.083Z,1.00
2023-01-26T12:57:18.791Z,1.00
2023-01-26T12:59:49.174Z,1.00
2023-01-26T13:02:30.890Z,1.00
2023-01-26T13:05:02.418Z,1.00
2023-01-26T13:07:34.783Z,1.00
2023-01-26T13:10:23.144Z,0.90
2023-01-26T13:12:56.654Z,0.90
2023-01-26T13:15:27.990Z,0.90
2023-01-26T13:18:02.119Z,1.00
2023-01-26T13:20:45.271Z,1.00
2023-01-26T13:23:44.663Z,1.00
2023-01-26T13:26:25.943Z,1.00
2023-01-26T13:29:28.701Z,1.00
2023-01-26T13:31:58.901Z,1.10
2023-01-26T13:34:32.071Z,1.10
2023-01-26T13:37:12.035Z,1.10
2023-01-26T13:39:45.455Z,1.10
2023-01-26T13:42:24.662Z,1.00
2023-01-26T13:45:01.054Z,1.00
2023-01-26T13:47:38.555Z,1.00
2023-01-26T13:50:23.941Z,0.90
2023-01-26T13:52:52.423Z,0.90
2023-01-26T13:55:26.207Z,0.90
2023-01-26T13:58:14.364Z,0.90
2023-01-26T14:00:42.771Z,0.90
2023-01-26T14:03:23.265Z,1.00
2023-01-26T14:05:58.479Z,1.00
2023-01-26T14:08:26.888Z,1.10
2023-01-26T14:10:55.283Z,1.10
2023-01-26T14:13:33.949Z,1.10
2023-01-26T14:16:07.204Z,1.00
2023-01-26T14:18:35.689Z,1.10
2023-01-26T14:21:06.542Z,1.10
2023-01-26T14:23:37.370Z,1.10
2023-01-26T14:26:20.380Z,1.10
2023-01-26T14:28:49.801Z,1.10
2023-01-26T14:31:23.032Z,1.20
2023-01-26T14:33:57.219Z,1.20
2023-01-26T14:36:28.365Z,1.10
2023-01-26T14:38:57.692Z,1.10
2023-01-26T14:41:29.310Z,1.10
2023-01-26T14:44:01.774Z,1.00
2023-01-26T14:46:38.793Z,1.00
2023-01-26T14:49:15.254Z,1.10
2023-01-26T14:51:46.753Z,1.00
2023-01-26T14:54:26.100Z,1.10
2023-01-26T14:56:54.603Z,1.10
2023-01-26T14:59:29.949Z,1.10
2023-01-26T15:02:15.134Z,1.10
2023-01-26T15:04:48.738Z,1.10
2023-01-26T15:07:38.883Z,1.00
2023-01-26T15:10:33.418Z,1.00
2023-01-26T15:13:06.922Z,1.00
2023-01-26T15:15:40.650Z,1.00
2023-01-26T15:18:21.312Z,1.00
2023-01-26T15:21:00.463Z,1.00
2023-01-26T15:23:33.075Z,1.00
2023-01-26T15:26:10.307Z,0.90
2023-01-26T15:28:39.579Z,1.00
2023-01-26T15:31:10.892Z,0.90
2023-01-26T15:33:49.614Z,0.90
2023-01-26T15:36:32.429Z,0.80
2023-01-26T15:39:04.764Z,0.80
2023-01-26T15:41:32.786Z,0.70
2023-01-26T15:44:01.829Z,0.60
2023-01-26T15:46:31.125Z,0.70
2023-01-26T15:48:59.079Z,0.70
2023-01-26T15:51:27.052Z,0.80
2023-01-26T15:53:54.997Z,0.80
2023-01-26T15:56:22.894Z,0.80
2023-01-26T15:58:50.831Z,0.60
2023-01-26T16:01:23.254Z,0.70
2023-01-26T16:03:53.567Z,0.70
2023-01-26T16:06:25.971Z,0.80
2023-01-26T16:08:54.989Z,0.60
2023-01-26T16:11:27.921Z,0.60
2023-01-26T16:14:03.240Z,0.70
2023-01-26T16:16:32.548Z,0.80
2023-01-26T16:19:02.054Z,0.80
2023-01-26T16:21:35.253Z,0.90
2023-01-26T16:24:04.633Z,0.80
2023-01-26T16:26:33.680Z,0.80
2023-01-26T16:29:01.604Z,0.80
2023-01-26T16:31:32.930Z,0.70
2023-01-26T16:34:02.511Z,0.70
2023-01-26T16:36:30.812Z,0.70
2023-01-26T16:38:58.730Z,0.70
2023-01-26T16:41:29.385Z,0.70
2023-01-26T16:43:59.937Z,0.70
2023-01-26T16:46:30.409Z,0.60
2023-01-26T16:48:58.657Z,0.60
2023-01-26T16:51:32.082Z,0.60
2023-01-26T16:54:00.047Z,0.60
2023-01-26T16:56:29.260Z,0.60
2023-01-26T16:58:57.302Z,0.50
2023-01-26T17:01:29.198Z,0.50
2023-01-26T17:03:57.695Z,0.50
2023-01-26T17:06:27.422Z,0.50
2023-01-26T17:08:55.826Z,0.60
2023-01-26T17:11:28.190Z,0.60
2023-01-26T17:13:57.157Z,0.40
2023-01-26T17:16:29.500Z,0.40
2023-01-26T17:18:57.700Z,0.30
2023-01-26T17:21:31.175Z,0.30
2023-01-26T17:23:59.674Z,0.30
2023-01-26T17:26:27.599Z,0.30
2023-01-26T17:28:57.052Z,0.30
2023-01-26T17:31:26.332Z,0.40
2023-01-26T17:33:56.045Z,0.40
2023-01-26T17:36:24.437Z,0.40
2023-01-26T17:38:54.108Z,0.40
2023-01-26T17:41:22.303Z,0.40
2023-01-26T17:43:51.279Z,0.40
2023-01-26T17:46:21.915Z,0.40
2023-01-26T17:48:51.894Z,0.40
2023-01-26T17:51:21.929Z,0.30
2023-01-26T17:53:51.255Z,0.30
2023-01-26T17:56:22.734Z,0.40
2023-01-26T17:58:53.102Z,0.30
2023-01-26T18:01:23.798Z,0.30
2023-01-26T18:03:53.440Z,0.30
2023-01-26T18:06:21.968Z,0.30
2023-01-26T18:08:50.076Z,0.30
2023-01-26T18:11:19.720Z,0.20
2023-01-26T18:13:47.737Z,0.20
2023-01-26T18:16:18.666Z,0.20
2023-01-26T18:18:47.112Z,0.30
2023-01-26T18:21:18.217Z,0.30
2023-01-26T18:23:47.406Z,0.20
2023-01-26T18:26:16.208Z,0.20
2023-01-26T18:28:46.576Z,0.20
2023-01-26T18:31:17.894Z,0.10
2023-01-26T18:33:46.883Z,0.10
2023-01-26T18:36:17.582Z,0.10
2023-01-26T18:38:51.992Z,0.20
2023-01-26T18:41:22.896Z,0.20
2023-01-26T18:43:53.811Z,0.10
2023-01-26T18:46:23.019Z,0.20
2023-01-26T18:48:54.112Z,0.20
2023-01-26T18:51:23.085Z,0.20
2023-01-26T18:53:52.502Z,0.10
2023-01-26T18:56:20.456Z,0.10
2023-01-26T18:58:48.681Z,0.10
2023-01-26T19:01:18.650Z,0.10
2023-01-26T19:03:47.682Z,0.10
2023-01-26T19:06:19.725Z,0.10
2023-01-26T19:08:55.342Z,0.10
2023-01-26T19:11:35.176Z,0.10
2023-01-26T19:14:05.224Z,0.10
2023-01-26T19:16:36.122Z,0.10
2023-01-26T19:19:04.956Z,0.20
2023-01-26T19:21:34.083Z,0.10
2023-01-26T19:24:06.309Z,0.10
2023-01-26T19:26:34.735Z,0.10
2023-01-26T19:29:02.702Z,0.20
2023-01-26T19:31:31.994Z,0.20
2023-01-26T19:34:03.622Z,0.10
2023-01-26T19:36:33.916Z,0.20
2023-01-26T19:39:02.484Z,0.20
2023-01-26T19:41:30.941Z,0.20
2023-01-26T19:43:59.283Z,0.30
2023-01-26T19:46:27.451Z,0.30
2023-01-26T19:48:55.582Z,0.20
2023-01-26T19:51:26.981Z,0.20
2023-01-26T19:53:57.565Z,0.20
2023-01-26T19:56:27.784Z,0.30
2023-01-26T19:58:58.122Z,0.30
2023-01-26T20:01:28.390Z,0.30
2023-01-26T20:04:00.028Z,0.30
2023-01-26T20:06:32.848Z,0.20
2023-01-26T20:09:03.431Z,0.20
2023-01-26T20:11:32.044Z,0.10
2023-01-26T20:14:03.159Z,0.10
2023-01-26T20:16:34.161Z,0.10
2023-01-26T20:19:02.983Z,0.10
2023-01-26T20:21:33.459Z,0.10
2023-01-26T20:24:05.579Z,0.10
2023-01-26T20:26:35.180Z,0.10
2023-01-26T20:29:03.288Z,0.10
2023-01-26T20:31:32.671Z,0.00
2023-01-26T20:34:01.972Z,0.00
2023-01-26T20:36:30.300Z,0.00
2023-01-26T20:39:00.152Z,-0.10
2023-01-26T20:41:31.009Z,-0.10
2023-01-26T20:44:02.676Z,-0.10
2023-01-26T20:46:33.639Z,0.00
2023-01-26T20:49:02.062Z,0.00
2023-01-26T20:51:33.935Z,0.10
2023-01-26T20:54:07.139Z,0.10
2023-01-26T20:56:36.430Z,0.10
2023-01-26T20:59:06.136Z,0.10
2023-01-26T21:01:36.315Z,0.10
2023-01-26T21:04:06.468Z,0.10
2023-01-26T21:06:35.569Z,0.10
2023-01-26T21:09:06.113Z,0.10
2023-01-26T21:11:35.129Z,0.10
2023-01-26T21:14:03.523Z,0.00
2023-01-26T21:16:35.662Z,0.00
2023-01-26T21:19:03.660Z,0.10
2023-01-26T21:21:31.623Z,0.00
2023-01-26T21:23:59.740Z,0.00
2023-01-26T21:26:29.779Z,-0.10
2023-01-26T21:29:00.061Z,-0.10
2023-01-26T21:31:30.828Z,-0.10
2023-01-26T21:34:00.893Z,-0.10
2023-01-26T21:36:31.934Z,-0.20
2023-01-26T21:39:01.651Z,-0.20
2023-01-26T21:41:50.862Z,-0.20
2023-01-26T21:44:21.586Z,-0.20
2023-01-26T21:46:52.682Z,-0.20
2023-01-26T21:49:21.539Z,-0.20
2023-01-26T21:52:07.427Z,-0.10
2023-01-26T21:54:36.415Z,-0.10
2023-01-26T21:57:29.596Z,-0.20
2023-01-26T21:59:57.059Z,-0.20
2023-01-26T22:02:25.242Z,-0.20
2023-01-26T22:04:53.330Z,-0.20
2023-01-26T22:07:21.243Z,-0.20
2023-01-26T22:09:49.171Z,-0.20
2023-01-26T22:12:18.429Z,-0.20
2023-01-26T22:14:46.392Z,-0.10
2023-01-26T22:17:14.304Z,-0.20
2023-01-26T22:19:42.375Z,-0.20
2023-01-26T22:22:10.294Z,-0.10
2023-01-26T22:24:38.170Z,-0.10
2023-01-26T22:27:06.630Z,-0.10
2023-01-26T22:29:36.031Z,-0.10
2023-01-26T22:32:04.181Z,-0.10
2023-01-26T22:34:32.501Z,-0.10
2023-01-26T22:37:00.481Z,-0.20
2023-01-26T22:39:28.379Z,-0.20
2023-01-26T22:41:56.288Z,-0.20
2023-01-26T22:44:24.169Z,-0.20
2023-01-26T22:46:53.348Z,-0.20
2023-01-26T22:49:21.222Z,-0.30
2023-01-26T22:51:49.129Z,-0.30
2023-01-26T22:54:17.011Z,-0.30
2023-01-26T22:56:44.941Z,-0.30
2023-01-26T22:59:13.023Z,-0.30
2023-01-26T23:01:40.921Z,-0.30
2023-01-26T23:04:11.022Z,-0.40
2023-01-26T23:06:39.102Z,-0.30
2023-01-26T23:09:07.009Z,-0.30
2023-01-26T23:11:35.110Z,-0.20
2023-01-26T23:14:03.019Z,-0.10
2023-01-26T23:16:31.266Z,-0.20
2023-01-26T23:19:00.263Z,-0.20
2023-01-26T23:21:30.622Z,-0.10
2023-01-26T23:23:59.264Z,-0.20
2023-01-26T23:26:27.622Z,-0.30
2023-01-26T23:28:55.537Z,-0.20
2023-01-26T23:31:23.627Z,-0.30
2023-01-26T23:33:51.547Z,-0.40
2023-01-26T23:36:20.573Z,-0.40
2023-01-26T23:38:50.264Z,-0.40
2023-01-26T23:41:19.080Z,-0.40
2023-01-26T23:43:47.047Z,-0.40
2023-01-26T23:46:14.961Z,-0.40
2023-01-26T23:48:42.945Z,-0.30
2023-01-26T23:51:13.150Z,-0.30
2023-01-26T23:53:41.213Z,-0.30
2023-01-26T23:56:15.940Z,-0.30
2023-01-26T23:58:44.260Z,-0.30
